createdAt,value
2017-10-13T00:01:22.375Z,4.93
2017-10-13T00:03:50.758Z,5.03
2017-10-13T00:06:20.041Z,4.57
2017-10-13T00:08:48.694Z,4.43
2017-10-13T00:11:17.117Z,5.10
2017-10-13T00:13:48.902Z,5.30
2017-10-13T00:16:17.241Z,4.80
2017-10-13T00:18:45.624Z,4.80
2017-10-13T00:21:17.095Z,5.40
2017-10-13T00:23:47.347Z,4.33
2017-10-13T00:26:15.693Z,5.00
2017-10-13T00:28:44.056Z,5.00
2017-10-13T00:31:15.837Z,4.70
2017-10-13T00:33:44.196Z,4.33
2017-10-13T00:36:12.589Z,4.63
2017-10-13T00:38:40.989Z,4.83
2017-10-13T00:41:10.261Z,4.40
2017-10-13T00:43:39.810Z,4.13
2017-10-13T00:46:08.250Z,4.60
2017-10-13T00:48:36.648Z,3.77
2017-10-13T00:51:05.034Z,4.07
2017-10-13T00:53:36.489Z,3.97
2017-10-13T00:56:09.450Z,4.37
2017-10-13T00:58:41.512Z,4.57
2017-10-13T01:01:09.919Z,3.80
2017-10-13T01:03:38.288Z,4.07
2017-10-13T01:06:06.708Z,4.20
2017-10-13T01:08:35.956Z,4.70
2017-10-13T01:11:08.946Z,4.00
2017-10-13T01:13:38.137Z,3.97
2017-10-13T01:16:06.653Z,4.20
2017-10-13T01:18:35.022Z,4.20
2017-10-13T01:21:03.385Z,4.30
2017-10-13T01:23:36.389Z,3.73
2017-10-13T01:26:04.752Z,4.93
2017-10-13T01:28:33.420Z,4.83
2017-10-13T01:31:05.503Z,4.87
2017-10-13T01:33:34.160Z,4.10
2017-10-13T01:36:04.116Z,4.57
2017-10-13T01:38:32.545Z,5.60
2017-10-13T01:41:01.807Z,4.93
2017-10-13T01:43:30.155Z,5.00
2017-10-13T01:45:58.565Z,5.37
2017-10-13T01:48:26.940Z,4.80
2017-10-13T01:50:55.333Z,5.23
2017-10-13T01:53:27.377Z,4.40
2017-10-13T01:55:57.632Z,5.50
2017-10-13T01:58:25.984Z,5.20
2017-10-13T02:00:54.365Z,5.00
2017-10-13T02:03:22.832Z,5.13
2017-10-13T02:05:53.282Z,5.20
2017-10-13T02:08:34.174Z,5.27
2017-10-13T02:11:02.653Z,5.47
2017-10-13T02:13:31.015Z,4.10
2017-10-13T02:15:59.371Z,5.90
2017-10-13T02:18:27.780Z,5.57
2017-10-13T02:20:59.552Z,6.37
2017-10-13T02:23:27.908Z,5.17
2017-10-13T02:25:56.283Z,5.00
2017-10-13T02:28:26.506Z,5.03
2017-10-13T02:30:54.914Z,5.57
2017-10-13T02:33:23.269Z,5.63
2017-10-13T02:35:53.520Z,6.03
2017-10-13T02:38:21.876Z,6.17
2017-10-13T02:40:50.252Z,5.63
2017-10-13T02:43:23.568Z,5.77
2017-10-13T02:45:51.919Z,5.60
2017-10-13T02:48:20.338Z,6.93
2017-10-13T02:50:51.760Z,5.63
2017-10-13T02:53:23.231Z,4.97
2017-10-13T02:55:54.971Z,5.70
2017-10-13T02:58:27.316Z,6.50
2017-10-13T03:00:55.714Z,6.07
2017-10-13T03:03:25.962Z,5.50
2017-10-13T03:05:54.350Z,5.40
2017-10-13T03:08:22.826Z,5.33
2017-10-13T03:10:53.238Z,6.00
2017-10-13T03:13:21.607Z,6.00
2017-10-13T03:15:50.941Z,6.53
2017-10-13T03:18:19.297Z,6.10
2017-10-13T03:20:47.679Z,5.67
2017-10-13T03:23:20.675Z,5.43
2017-10-13T03:25:53.049Z,5.93
2017-10-13T03:28:21.468Z,5.70
2017-10-13T03:30:49.834Z,5.20
2017-10-13T03:33:18.208Z,5.63
2017-10-13T03:35:49.635Z,5.23
2017-10-13T03:38:18.039Z,5.10
2017-10-13T03:40:46.390Z,4.83
2017-10-13T03:43:14.764Z,5.50
2017-10-13T03:45:43.188Z,5.90
2017-10-13T03:48:11.541Z,6.13
2017-10-13T03:50:40.912Z,7.50
2017-10-13T03:53:09.204Z,10.40
2017-10-13T03:55:38.242Z,5.80
2017-10-13T03:58:06.553Z,6.07
2017-10-13T04:00:35.587Z,6.00
2017-10-13T04:03:03.973Z,6.10
2017-10-13T04:05:32.355Z,6.00
2017-10-13T04:08:00.739Z,5.50
2017-10-13T04:10:29.163Z,7.40
2017-10-13T04:12:58.423Z,7.00
2017-10-13T04:15:27.059Z,6.00
2017-10-13T04:17:55.811Z,6.77
2017-10-13T04:20:24.148Z,6.60
2017-10-13T04:22:52.454Z,22.27
2017-10-13T04:25:20.915Z,6.80
2017-10-13T04:27:49.315Z,6.60
2017-10-13T04:30:17.678Z,6.77
2017-10-13T04:32:45.963Z,6.93
2017-10-13T04:35:14.232Z,10.97
2017-10-13T04:37:43.298Z,9.20
2017-10-13T04:40:11.571Z,8.00
2017-10-13T04:42:40.678Z,8.27
2017-10-13T04:45:08.976Z,7.20
2017-10-13T04:47:37.249Z,8.37
2017-10-13T04:50:05.533Z,8.43
2017-10-13T04:52:33.814Z,8.10
2017-10-13T04:55:02.097Z,7.17
2017-10-13T04:57:31.620Z,8.10
2017-10-13T04:59:59.881Z,8.20
2017-10-13T05:02:28.179Z,7.90
2017-10-13T05:04:56.552Z,7.63
2017-10-13T05:07:24.806Z,7.70
2017-10-13T05:09:53.087Z,8.13
2017-10-13T05:12:21.376Z,8.17
2017-10-13T05:14:49.674Z,7.87
2017-10-13T05:17:17.955Z,10.33
2017-10-13T05:19:46.235Z,7.73
2017-10-13T05:22:14.519Z,8.13
2017-10-13T05:24:42.828Z,8.03
2017-10-13T05:27:11.103Z,8.03
2017-10-13T05:29:40.135Z,9.10
2017-10-13T05:32:08.430Z,8.07
2017-10-13T05:34:36.678Z,9.00
2017-10-13T05:37:07.022Z,8.73
2017-10-13T05:39:35.374Z,8.97
2017-10-13T05:42:03.617Z,9.30
2017-10-13T05:44:31.908Z,8.07
2017-10-13T05:47:00.947Z,9.53
2017-10-13T05:49:29.617Z,10.47
2017-10-13T05:51:57.871Z,9.27
2017-10-13T05:54:26.140Z,8.97
2017-10-13T05:56:54.419Z,11.80
2017-10-13T05:59:23.452Z,11.47
2017-10-13T06:01:53.061Z,9.83
2017-10-13T06:04:21.329Z,12.80
2017-10-13T06:06:49.616Z,10.10
2017-10-13T06:09:17.889Z,10.13
2017-10-13T06:11:46.160Z,10.67
2017-10-13T06:14:14.440Z,9.90
2017-10-13T06:16:42.739Z,11.20
2017-10-13T06:19:11.003Z,9.63
2017-10-13T06:21:39.281Z,8.93
2017-10-13T06:24:07.554Z,9.90
2017-10-13T06:26:35.837Z,11.60
2017-10-13T06:29:05.170Z,10.33
2017-10-13T06:31:33.439Z,9.87
2017-10-13T06:34:01.716Z,9.20
2017-10-13T06:36:31.309Z,9.30
2017-10-13T06:38:59.589Z,8.90
2017-10-13T06:41:27.847Z,7.83
2017-10-13T06:43:56.128Z,9.17
2017-10-13T06:46:24.419Z,9.30
2017-10-13T06:48:52.685Z,8.27
2017-10-13T06:51:20.983Z,7.60
2017-10-13T06:53:49.252Z,8.70
2017-10-13T06:56:17.531Z,8.17
2017-10-13T06:58:45.841Z,7.90
2017-10-13T07:01:14.793Z,8.70
2017-10-13T07:03:43.644Z,8.20
2017-10-13T07:06:13.895Z,9.17
2017-10-13T07:08:43.417Z,7.67
2017-10-13T07:11:12.510Z,8.20
2017-10-13T07:13:42.090Z,8.00
2017-10-13T07:16:11.070Z,9.27
2017-10-13T07:18:40.397Z,7.53
2017-10-13T07:21:09.450Z,7.80
2017-10-13T07:23:38.208Z,6.47
2017-10-13T07:26:07.267Z,7.07
2017-10-13T07:28:36.268Z,6.67
2017-10-13T07:31:06.297Z,6.43
2017-10-13T07:33:35.312Z,6.60
2017-10-13T07:36:04.381Z,6.10
2017-10-13T07:38:33.319Z,6.07
2017-10-13T07:41:02.211Z,5.90
2017-10-13T07:43:31.208Z,6.73
2017-10-13T07:46:00.065Z,6.37
2017-10-13T07:48:28.732Z,7.53
2017-10-13T07:50:59.054Z,7.00
2017-10-13T07:53:28.371Z,5.80
2017-10-13T07:55:58.193Z,6.50
2017-10-13T07:58:27.507Z,6.67
2017-10-13T08:00:56.247Z,6.10
2017-10-13T08:03:25.369Z,6.80
2017-10-13T08:05:55.240Z,6.97
2017-10-13T08:08:24.510Z,7.23
2017-10-13T08:10:53.511Z,7.27
2017-10-13T08:13:22.858Z,7.37
2017-10-13T08:15:52.435Z,7.33
2017-10-13T08:18:21.983Z,6.33
2017-10-13T08:20:50.688Z,7.77
2017-10-13T08:23:19.954Z,5.80
2017-10-13T08:25:48.921Z,6.80
2017-10-13T08:28:17.504Z,7.00
2017-10-13T08:30:47.232Z,6.20
2017-10-13T08:33:16.606Z,7.00
2017-10-13T08:35:45.358Z,6.43
2017-10-13T08:38:14.222Z,6.27
2017-10-13T08:40:43.202Z,6.67
2017-10-13T08:43:12.110Z,5.93
2017-10-13T08:45:42.568Z,7.37
2017-10-13T08:48:11.370Z,6.10
2017-10-13T08:50:41.885Z,6.17
2017-10-13T08:53:10.169Z,5.77
2017-10-13T08:55:38.437Z,6.17
2017-10-13T08:58:07.098Z,5.77
2017-10-13T09:00:36.161Z,6.53
2017-10-13T09:03:04.976Z,6.23
2017-10-13T09:05:34.608Z,6.00
2017-10-13T09:08:04.981Z,5.40
2017-10-13T09:10:34.498Z,6.37
2017-10-13T09:13:03.374Z,5.97
2017-10-13T09:15:32.929Z,5.53
2017-10-13T09:18:01.955Z,5.43
2017-10-13T09:20:31.484Z,4.57
2017-10-13T09:23:06.170Z,5.93
2017-10-13T09:25:36.034Z,6.47
2017-10-13T09:28:05.091Z,7.23
2017-10-13T09:30:34.777Z,7.07
2017-10-13T09:33:03.990Z,7.43
2017-10-13T09:35:32.783Z,5.90
2017-10-13T09:38:02.181Z,5.87
2017-10-13T09:40:31.465Z,6.17
2017-10-13T09:43:00.535Z,7.37
2017-10-13T09:45:29.449Z,6.17
2017-10-13T09:47:58.787Z,5.90
2017-10-13T09:50:27.981Z,5.97
2017-10-13T09:52:58.589Z,6.90
2017-10-13T09:55:27.067Z,6.87
2017-10-13T09:57:56.162Z,6.50
2017-10-13T10:00:25.370Z,7.07
2017-10-13T10:02:55.483Z,8.00
2017-10-13T10:05:25.191Z,7.27
2017-10-13T10:07:54.333Z,8.40
2017-10-13T10:10:23.597Z,7.90
2017-10-13T10:12:53.809Z,7.10
2017-10-13T10:15:22.186Z,8.00
2017-10-13T10:17:51.003Z,8.10
2017-10-13T10:20:20.792Z,8.70
2017-10-13T10:22:50.199Z,7.30
2017-10-13T10:25:19.181Z,7.87
2017-10-13T10:27:49.407Z,7.90
2017-10-13T10:30:18.136Z,7.83
2017-10-13T10:32:47.203Z,7.67
2017-10-13T10:35:16.920Z,8.90
2017-10-13T10:37:47.744Z,9.17
2017-10-13T10:40:17.005Z,10.63
2017-10-13T10:42:46.033Z,11.57
2017-10-13T10:45:15.414Z,11.50
2017-10-13T10:47:44.338Z,10.90
2017-10-13T10:50:12.863Z,11.43
2017-10-13T10:52:41.315Z,13.10
2017-10-13T10:55:10.349Z,11.50
2017-10-13T10:57:38.817Z,11.97
2017-10-13T11:00:07.200Z,11.10
2017-10-13T11:02:36.533Z,11.53
2017-10-13T11:05:06.736Z,11.20
2017-10-13T11:07:37.889Z,11.90
2017-10-13T11:10:06.248Z,11.67
2017-10-13T11:12:35.905Z,12.70
2017-10-13T11:15:05.066Z,11.50
2017-10-13T11:17:35.868Z,11.67
2017-10-13T11:20:04.310Z,11.60
2017-10-13T11:22:32.609Z,11.27
2017-10-13T11:25:00.916Z,12.30
2017-10-13T11:27:30.359Z,13.03
2017-10-13T11:29:59.916Z,11.77
2017-10-13T11:32:29.922Z,11.50
2017-10-13T11:34:59.108Z,10.20
2017-10-13T11:37:29.571Z,11.20
2017-10-13T11:39:59.225Z,11.20
2017-10-13T11:42:29.333Z,9.83
2017-10-13T11:44:58.849Z,10.60
2017-10-13T11:47:31.208Z,11.20
2017-10-13T11:50:01.706Z,10.93
2017-10-13T11:52:29.993Z,10.60
2017-10-13T11:54:58.361Z,10.80
2017-10-13T11:57:27.344Z,11.33
2017-10-13T11:59:58.113Z,10.70
2017-10-13T12:02:26.902Z,11.73
2017-10-13T12:04:57.279Z,11.93
2017-10-13T12:07:25.944Z,13.20
2017-10-13T12:09:55.598Z,11.30
2017-10-13T12:12:23.957Z,11.43
2017-10-13T12:14:53.493Z,11.00
2017-10-13T12:17:21.790Z,10.53
2017-10-13T12:19:50.157Z,11.20
2017-10-13T12:22:18.475Z,11.40
2017-10-13T12:24:46.813Z,10.20
2017-10-13T12:27:15.465Z,10.60
2017-10-13T12:29:43.849Z,10.83
2017-10-13T12:32:13.445Z,8.53
2017-10-13T12:34:42.932Z,10.70
2017-10-13T12:37:11.868Z,9.87
2017-10-13T12:39:41.880Z,11.20
2017-10-13T12:42:13.109Z,9.10
2017-10-13T12:44:42.715Z,9.20
2017-10-13T12:47:12.751Z,10.53
2017-10-13T12:49:43.281Z,9.20
2017-10-13T12:52:12.210Z,10.00
2017-10-13T12:54:42.283Z,9.20
2017-10-13T12:57:12.444Z,9.37
2017-10-13T12:59:41.114Z,10.23
2017-10-13T13:02:10.760Z,9.33
2017-10-13T13:04:40.156Z,9.97
2017-10-13T13:07:09.308Z,11.30
2017-10-13T13:09:37.602Z,10.40
2017-10-13T13:12:06.683Z,11.47
2017-10-13T13:14:35.706Z,11.90
2017-10-13T13:17:04.689Z,11.47
2017-10-13T13:19:33.515Z,11.20
2017-10-13T13:22:03.498Z,10.90
2017-10-13T13:24:33.626Z,11.20
2017-10-13T13:27:03.043Z,11.27
2017-10-13T13:29:31.316Z,10.93
2017-10-13T13:32:00.361Z,9.97
2017-10-13T13:34:29.746Z,7.80
2017-10-13T13:36:59.810Z,7.53
2017-10-13T13:39:28.906Z,8.63
2017-10-13T13:41:58.528Z,6.30
2017-10-13T13:44:27.419Z,6.20
2017-10-13T13:46:57.637Z,6.50
2017-10-13T13:49:26.645Z,5.53
2017-10-13T13:51:56.023Z,6.60
2017-10-13T13:54:24.576Z,5.60
2017-10-13T13:56:53.879Z,5.10
2017-10-13T13:59:23.746Z,5.90
2017-10-13T14:01:53.630Z,5.50
2017-10-13T14:04:23.269Z,5.50
2017-10-13T14:06:52.066Z,5.40
2017-10-13T14:09:20.430Z,7.23
2017-10-13T14:11:49.945Z,5.60
2017-10-13T14:14:19.125Z,6.17
2017-10-13T14:16:48.451Z,7.20
2017-10-13T14:19:17.654Z,6.60
2017-10-13T14:21:46.662Z,7.60
2017-10-13T14:24:15.674Z,7.93
2017-10-13T14:26:45.761Z,7.73
2017-10-13T14:29:14.830Z,8.20
2017-10-13T14:31:44.393Z,8.07
2017-10-13T14:34:13.514Z,7.83
2017-10-13T14:36:44.131Z,7.07
2017-10-13T14:39:13.377Z,7.37
2017-10-13T14:41:42.700Z,6.40
2017-10-13T14:44:11.790Z,7.40
2017-10-13T14:46:40.211Z,7.27
2017-10-13T14:49:08.832Z,6.40
2017-10-13T14:51:37.985Z,6.53
2017-10-13T14:54:08.233Z,6.00
2017-10-13T14:56:37.110Z,5.90
2017-10-13T14:59:06.363Z,6.10
2017-10-13T15:01:35.371Z,7.10
2017-10-13T15:04:04.871Z,5.87
2017-10-13T15:06:33.255Z,6.23
2017-10-13T15:09:02.215Z,6.97
2017-10-13T15:11:31.320Z,6.40
2017-10-13T15:13:59.667Z,5.90
2017-10-13T15:16:28.514Z,6.37
2017-10-13T15:18:57.211Z,5.57
2017-10-13T15:21:25.548Z,6.03
2017-10-13T15:23:54.213Z,7.30
2017-10-13T15:26:29.944Z,7.67
2017-10-13T15:29:04.705Z,8.93
2017-10-13T15:31:39.222Z,6.53
2017-10-13T15:34:13.884Z,6.93
2017-10-13T15:36:42.612Z,6.07
2017-10-13T15:39:16.444Z,6.07
2017-10-13T15:41:50.743Z,6.20
2017-10-13T15:44:24.784Z,6.03
2017-10-13T15:46:58.641Z,7.67
2017-10-13T15:49:32.456Z,6.17
2017-10-13T15:52:06.339Z,10.67
2017-10-13T15:54:40.524Z,6.43
2017-10-13T15:57:08.802Z,7.17
2017-10-13T15:59:37.081Z,6.50
2017-10-13T16:02:05.409Z,7.10
2017-10-13T16:04:37.171Z,6.20
2017-10-13T16:07:05.695Z,6.47
2017-10-13T16:09:33.991Z,6.00
2017-10-13T16:12:02.273Z,6.00
2017-10-13T16:14:30.598Z,5.60
2017-10-13T16:16:58.944Z,6.53
2017-10-13T16:19:27.250Z,7.47
2017-10-13T16:21:55.541Z,7.17
2017-10-13T16:24:24.095Z,5.73
2017-10-13T16:26:52.355Z,6.33
2017-10-13T16:29:20.640Z,5.90
2017-10-13T16:31:48.941Z,6.53
2017-10-13T16:34:17.906Z,6.30
2017-10-13T16:36:46.246Z,6.20
2017-10-13T16:39:14.919Z,6.70
2017-10-13T16:41:43.579Z,7.40
2017-10-13T16:44:12.849Z,6.70
2017-10-13T16:46:41.135Z,7.07
2017-10-13T16:49:09.636Z,6.77
2017-10-13T16:51:38.161Z,6.93
2017-10-13T16:54:06.544Z,6.90
2017-10-13T16:56:35.597Z,6.10
2017-10-13T16:59:03.887Z,6.50
2017-10-13T17:01:32.153Z,7.27
2017-10-13T17:04:00.421Z,6.53
2017-10-13T17:06:29.114Z,7.03
2017-10-13T17:08:58.101Z,7.07
2017-10-13T17:11:26.813Z,5.93
2017-10-13T17:13:55.220Z,6.50
2017-10-13T17:16:24.455Z,6.47
2017-10-13T17:18:52.727Z,6.60
2017-10-13T17:21:21.013Z,6.40
2017-10-13T17:23:50.165Z,7.17
2017-10-13T17:26:18.506Z,7.13
2017-10-13T17:28:46.787Z,7.40
2017-10-13T17:31:15.063Z,7.23
2017-10-13T17:33:43.355Z,6.50
2017-10-13T17:36:11.644Z,6.63
2017-10-13T17:38:39.941Z,4.80
2017-10-13T17:41:08.581Z,5.57
2017-10-13T17:43:36.845Z,6.40
2017-10-13T17:46:05.183Z,6.40
2017-10-13T17:48:34.340Z,6.10
2017-10-13T17:51:02.667Z,6.33
2017-10-13T17:53:30.944Z,5.63
2017-10-13T17:56:00.017Z,6.90
2017-10-13T17:58:28.325Z,7.10
2017-10-13T18:00:56.619Z,5.50
2017-10-13T18:03:24.928Z,5.77
2017-10-13T18:05:53.345Z,5.33
2017-10-13T18:08:22.425Z,5.90
2017-10-13T18:10:50.700Z,6.73
2017-10-13T18:13:19.017Z,6.40
2017-10-13T18:15:47.319Z,6.33
2017-10-13T18:18:15.646Z,7.10
2017-10-13T18:20:43.977Z,6.30
2017-10-13T18:23:12.319Z,6.00
2017-10-13T18:25:41.790Z,6.30
2017-10-13T18:28:10.241Z,7.10
2017-10-13T18:30:38.665Z,5.90
2017-10-13T18:33:07.020Z,6.50
2017-10-13T18:35:35.350Z,6.67
2017-10-13T18:38:03.689Z,6.10
2017-10-13T18:40:32.043Z,6.37
2017-10-13T18:43:00.693Z,6.47
2017-10-13T18:45:29.029Z,6.37
2017-10-13T18:47:57.444Z,5.77
2017-10-13T18:50:25.791Z,6.30
2017-10-13T18:52:54.164Z,6.23
2017-10-13T18:55:23.466Z,6.63
2017-10-13T18:57:51.797Z,7.30
2017-10-13T19:00:20.594Z,7.20
2017-10-13T19:02:50.145Z,7.03
2017-10-13T19:05:18.491Z,6.37
2017-10-13T19:07:46.877Z,5.93
2017-10-13T19:10:15.211Z,6.53
2017-10-13T19:12:44.382Z,5.63
2017-10-13T19:15:12.726Z,6.67
2017-10-13T19:17:41.070Z,5.40
2017-10-13T19:20:09.409Z,6.53
2017-10-13T19:22:37.747Z,5.80
2017-10-13T19:25:07.107Z,5.50
2017-10-13T19:27:35.447Z,6.33
2017-10-13T19:30:04.445Z,5.30
2017-10-13T19:32:32.782Z,6.67
2017-10-13T19:35:01.180Z,5.43
2017-10-13T19:37:30.292Z,5.10
2017-10-13T19:39:58.617Z,6.50
2017-10-13T19:42:26.990Z,5.27
2017-10-13T19:44:55.347Z,6.80
2017-10-13T19:47:23.677Z,6.07
2017-10-13T19:49:52.079Z,5.50
2017-10-13T19:52:21.193Z,6.10
2017-10-13T19:54:50.390Z,5.27
2017-10-13T19:57:18.776Z,5.00
2017-10-13T19:59:51.245Z,5.70
2017-10-13T20:02:20.504Z,6.00
2017-10-13T20:04:48.871Z,5.53
2017-10-13T20:07:20.193Z,5.70
2017-10-13T20:09:48.682Z,5.27
2017-10-13T20:12:17.088Z,5.10
2017-10-13T20:14:45.447Z,5.07
2017-10-13T20:17:13.806Z,5.20
2017-10-13T20:19:43.104Z,6.20
2017-10-13T20:22:14.556Z,5.93
2017-10-13T20:24:45.110Z,6.70
2017-10-13T20:27:14.673Z,5.70
2017-10-13T20:29:44.241Z,5.47
2017-10-13T20:32:12.649Z,5.17
2017-10-13T20:34:41.767Z,5.33
2017-10-13T20:37:10.134Z,5.47
2017-10-13T20:39:39.260Z,5.87
2017-10-13T20:42:07.754Z,5.70
2017-10-13T20:44:38.324Z,5.90
2017-10-13T20:47:08.161Z,5.67
2017-10-13T20:49:37.476Z,5.20
2017-10-13T20:52:05.861Z,5.43
2017-10-13T20:54:34.267Z,5.07
2017-10-13T20:57:07.523Z,4.80
2017-10-13T20:59:36.891Z,5.07
2017-10-13T21:02:05.248Z,5.27
2017-10-13T21:04:33.610Z,5.03
2017-10-13T21:07:01.980Z,4.53
2017-10-13T21:09:30.349Z,4.27
2017-10-13T21:11:58.737Z,5.50
2017-10-13T21:14:29.258Z,5.07
2017-10-13T21:16:57.636Z,4.30
2017-10-13T21:19:27.985Z,4.60
2017-10-13T21:21:57.494Z,4.27
2017-10-13T21:24:27.992Z,4.70
2017-10-13T21:26:57.311Z,5.63
2017-10-13T21:29:26.623Z,4.60
2017-10-13T21:31:54.985Z,4.43
2017-10-13T21:34:24.302Z,4.47
2017-10-13T21:36:52.656Z,4.70
2017-10-13T21:39:21.991Z,5.10
2017-10-13T21:41:52.530Z,5.20
2017-10-13T21:44:21.808Z,5.20
2017-10-13T21:46:54.163Z,6.83
2017-10-13T21:49:23.493Z,4.63
2017-10-13T21:51:51.854Z,5.30
2017-10-13T21:54:21.145Z,5.63
2017-10-13T21:56:50.474Z,4.40
2017-10-13T21:59:19.800Z,5.07
2017-10-13T22:01:53.699Z,4.70
2017-10-13T22:04:23.690Z,4.80
2017-10-13T22:06:54.890Z,6.13
2017-10-13T22:09:23.423Z,4.47
2017-10-13T22:11:51.801Z,4.60
2017-10-13T22:14:21.135Z,4.60
2017-10-13T22:16:49.471Z,4.53
2017-10-13T22:19:22.209Z,4.50
2017-10-13T22:21:50.545Z,4.23
2017-10-13T22:24:21.465Z,4.47
2017-10-13T22:26:50.659Z,5.13
2017-10-13T22:29:24.039Z,4.60
2017-10-13T22:31:53.584Z,4.87
2017-10-13T22:34:22.917Z,5.00
2017-10-13T22:36:53.421Z,6.20
2017-10-13T22:39:22.752Z,4.70
2017-10-13T22:41:54.795Z,4.57
2017-10-13T22:44:23.149Z,4.27
2017-10-13T22:46:52.857Z,4.93
2017-10-13T22:49:22.074Z,5.80
2017-10-13T22:51:51.352Z,5.50
2017-10-13T22:54:19.718Z,5.13
2017-10-13T22:56:48.947Z,5.07
2017-10-13T22:59:17.446Z,6.13
2017-10-13T23:01:45.825Z,5.87
2017-10-13T23:04:14.193Z,3.93
2017-10-13T23:06:43.516Z,4.57
2017-10-13T23:09:14.000Z,5.10
2017-10-13T23:11:42.412Z,5.20
2017-10-13T23:14:12.912Z,4.60
2017-10-13T23:16:42.351Z,5.00
2017-10-13T23:19:10.682Z,4.07
2017-10-13T23:21:40.222Z,3.87
2017-10-13T23:24:09.580Z,4.17
2017-10-13T23:26:38.865Z,4.83
2017-10-13T23:29:08.162Z,3.87
2017-10-13T23:31:36.476Z,4.57
2017-10-13T23:34:05.131Z,4.93
2017-10-13T23:36:33.559Z,5.30
2017-10-13T23:39:01.950Z,4.47
2017-10-13T23:41:31.281Z,3.93
2017-10-13T23:44:00.568Z,3.97
2017-10-13T23:46:31.107Z,4.30
2017-10-13T23:49:01.601Z,3.60
2017-10-13T23:51:32.172Z,3.63
2017-10-13T23:54:04.859Z,3.67
2017-10-13T23:56:35.357Z,4.30
2017-10-13T23:59:04.439Z,3.87
